Time;durP1;ratioP1;P1;durP2;ratioP2;P2;SDS_P1;SDS_P2;PMS_P1;PMS_P2;Temp;Humidity;BMP_temperature;BMP_pressure;BME280_temperature;BME280_humidity;BME280_pressure;Samples;Min_cycle;Max_cycle;Signal;HPM_P1;HPM_P2
2022/04/10 00:01:46;;;;;;;6.90;1.83;;;;;;;;;;4970965;28;20083;-72
2022/04/10 00:04:13;;;;;;;5.15;1.77;;;;;;;;;;4970061;29;20062;-73
2022/04/10 00:06:39;;;;;;;5.43;1.80;;;;;;;;;;4976753;28;20155;-73
2022/04/10 00:09:05;;;;;;;5.70;1.83;;;;;;;;;;4984108;28;20051;-73
2022/04/10 00:11:32;;;;;;;5.90;1.70;;;;;;;;;;4973571;28;20141;-73
2022/04/10 00:13:58;;;;;;;6.18;1.90;;;;;;;;;;4972756;28;20047;-74
2022/04/10 00:16:26;;;;;;;6.05;1.90;;;;;;;;;;4959084;28;20042;-73
2022/04/10 00:18:53;;;;;;;7.15;1.60;;;;;;;;;;4964416;28;20047;-73
2022/04/10 00:21:20;;;;;;;5.93;2.00;;;;;;;;;;4955783;28;20051;-73
2022/04/10 00:23:46;;;;;;;5.63;1.70;;;;;;;;;;4974560;28;20073;-73
2022/04/10 00:26:13;;;;;;;6.28;1.70;;;;;;;;;;4957832;28;20054;-73
2022/04/10 00:28:40;;;;;;;5.90;1.63;;;;;;;;;;4971694;28;20134;-73
2022/04/10 00:31:06;;;;;;;3.60;1.52;;;;;;;;;;4956800;28;20055;-73
2022/04/10 00:33:34;;;;;;;5.60;1.80;;;;;;;;;;4958925;28;20047;-73
2022/04/10 00:36:00;;;;;;;5.30;1.52;;;;;;;;;;4971933;28;20057;-73
2022/04/10 00:38:26;;;;;;;6.25;1.85;;;;;;;;;;4963924;28;20423;-73
2022/04/10 00:40:53;;;;;;;6.60;1.70;;;;;;;;;;4962247;28;20051;-73
2022/04/10 00:43:19;;;;;;;6.28;1.70;;;;;;;;;;4966802;28;20053;-73
2022/04/10 00:45:45;;;;;;;6.03;1.77;;;;;;;;;;4969703;28;20051;-71
2022/04/10 00:48:11;;;;;;;5.65;1.80;;;;;;;;;;4970327;28;20059;-73
2022/04/10 00:51:39;;;;;;;6.38;1.90;;;;;;;;;;4971098;28;20050;-73
2022/04/10 00:53:27;;;;;;;5.00;1.70;;;;;;;;;;4956142;28;20047;-73
2022/04/10 00:55:54;;;;;;;3.65;1.50;;;;;;;;;;4955563;28;20051;-73
2022/04/10 00:58:20;;;;;;;5.90;1.60;;;;;;;;;;4956554;28;20051;-73
2022/04/10 01:00:47;;;;;;;4.50;1.60;;;;;;;;;;4968159;28;20478;-73
2022/04/10 01:03:13;;;;;;;6.43;1.70;;;;;;;;;;4973143;28;20521;-73
2022/04/10 01:05:41;;;;;;;5.97;1.70;;;;;;;;;;4974707;28;20084;-73
2022/04/10 01:08:08;;;;;;;6.05;1.80;;;;;;;;;;4973493;28;20046;-73
2022/04/10 01:10:34;;;;;;;5.78;1.48;;;;;;;;;;4964935;28;20058;-72
2022/04/10 01:13:01;;;;;;;5.30;1.58;;;;;;;;;;4955357;28;20054;-73
2022/04/10 01:15:27;;;;;;;4.93;1.63;;;;;;;;;;4970430;28;20059;-73
2022/04/10 01:17:53;;;;;;;4.38;1.45;;;;;;;;;;4971069;28;20438;-73
2022/04/10 01:20:20;;;;;;;5.45;1.55;;;;;;;;;;4973208;28;20050;-73
2022/04/10 01:22:49;;;;;;;5.95;1.70;;;;;;;;;;4963543;28;20051;-73
2022/04/10 01:25:15;;;;;;;4.07;1.60;;;;;;;;;;4974748;28;20066;-73
2022/04/10 01:27:42;;;;;;;5.97;1.67;;;;;;;;;;4965923;28;20043;-73
2022/04/10 01:30:11;;;;;;;5.20;1.70;;;;;;;;;;4972343;28;20047;-72
2022/04/10 01:32:37;;;;;;;4.18;1.30;;;;;;;;;;4960252;28;20091;-73
2022/04/10 01:35:06;;;;;;;4.82;1.50;;;;;;;;;;4955668;28;20050;-74
2022/04/10 01:37:34;;;;;;;5.20;1.58;;;;;;;;;;4969368;28;20542;-72
2022/04/10 01:40:00;;;;;;;;;;;;;;;;;;4960822;28;20051;-73
2022/04/10 01:42:28;;;;;;;4.10;1.38;;;;;;;;;;4968508;28;20542;-72
2022/04/10 01:44:54;;;;;;;;;;;;;;;;;;4968498;28;20266;-73
2022/04/10 01:47:21;;;;;;;3.47;1.40;;;;;;;;;;4955660;28;19922;-72
2022/04/10 01:49:47;;;;;;;4.70;1.48;;;;;;;;;;4963700;28;20051;-73
2022/04/10 01:52:13;;;;;;;3.88;1.50;;;;;;;;;;4962052;28;20054;-73
2022/04/10 01:54:39;;;;;;;4.47;1.55;;;;;;;;;;4970837;28;20054;-74
2022/04/10 01:57:06;;;;;;;3.88;1.27;;;;;;;;;;4961195;28;20418;-73
2022/04/10 01:59:34;;;;;;;5.03;1.40;;;;;;;;;;4972094;28;20059;-73
2022/04/10 02:02:00;;;;;;;4.88;1.60;;;;;;;;;;4955209;28;20419;-74
2022/04/10 02:04:26;;;;;;;3.45;1.50;;;;;;;;;;4954129;28;20503;-73
2022/04/10 02:06:53;;;;;;;4.85;1.48;;;;;;;;;;4959403;28;20054;-73
2022/04/10 02:09:19;;;;;;;4.57;1.60;;;;;;;;;;4969212;28;20053;-73
2022/04/10 02:11:45;;;;;;;4.65;1.35;;;;;;;;;;4961757;28;20055;-73
2022/04/10 02:14:12;;;;;;;3.95;1.42;;;;;;;;;;4954019;28;20557;-73
2022/04/10 02:16:39;;;;;;;4.65;1.27;;;;;;;;;;4956363;28;20054;-74
2022/04/10 02:19:06;;;;;;;6.45;1.52;;;;;;;;;;4973928;28;20055;-73
2022/04/10 02:21:32;;;;;;;4.18;1.33;;;;;;;;;;4969501;28;20069;-73
2022/04/10 02:23:58;;;;;;;3.50;1.40;;;;;;;;;;4956676;28;20051;-73
2022/04/10 02:26:25;;;;;;;4.90;1.42;;;;;;;;;;4968516;28;20057;-73
2022/04/10 02:28:51;;;;;;;4.13;1.30;;;;;;;;;;4962399;28;20051;-73
2022/04/10 02:31:17;;;;;;;4.93;1.40;;;;;;;;;;4965301;28;20585;-73
2022/04/10 02:33:45;;;;;;;4.35;1.45;;;;;;;;;;4962734;28;20058;-72
2022/04/10 02:36:14;;;;;;;3.63;1.45;;;;;;;;;;4954233;28;20051;-73
2022/04/10 02:38:40;;;;;;;3.78;1.25;;;;;;;;;;4969243;28;20479;-73
2022/04/10 02:41:07;;;;;;;4.45;1.40;;;;;;;;;;4969344;28;20047;-73
2022/04/10 02:43:33;;;;;;;4.03;1.33;;;;;;;;;;4954366;28;20047;-73
2022/04/10 02:46:00;;;;;;;3.47;1.20;;;;;;;;;;4969657;28;20053;-73
2022/04/10 02:48:26;;;;;;;3.28;1.15;;;;;;;;;;4968503;28;20049;-73
2022/04/10 02:50:54;;;;;;;3.33;1.42;;;;;;;;;;4960773;28;20423;-73
2022/04/10 02:53:20;;;;;;;4.18;1.30;;;;;;;;;;4970388;28;20130;-73
2022/04/10 02:55:46;;;;;;;4.38;1.40;;;;;;;;;;4973130;28;20633;-73
2022/04/10 02:58:13;;;;;;;4.10;1.40;;;;;;;;;;4961201;28;20055;-73
2022/04/10 03:00:39;;;;;;;4.53;1.50;;;;;;;;;;4972903;28;20051;-73
2022/04/10 03:03:05;;;;;;;3.35;1.25;;;;;;;;;;4966259;28;20051;-73
2022/04/10 03:05:32;;;;;;;4.05;1.27;;;;;;;;;;4960087;28;20051;-73
2022/04/10 03:07:59;;;;;;;4.32;1.50;;;;;;;;;;4972476;28;20053;-73
2022/04/10 03:10:26;;;;;;;3.85;1.38;;;;;;;;;;4963698;28;20050;-73
2022/04/10 03:12:52;;;;;;;3.95;1.33;;;;;;;;;;4970775;28;20047;-73
2022/04/10 03:15:18;;;;;;;2.85;1.20;;;;;;;;;;4973197;28;20054;-73
2022/04/10 03:17:45;;;;;;;3.00;1.25;;;;;;;;;;4960945;28;20058;-72
2022/04/10 03:20:11;;;;;;;3.85;1.33;;;;;;;;;;4964909;28;20055;-73
2022/04/10 03:22:38;;;;;;;4.72;1.40;;;;;;;;;;4958817;28;20098;-73
2022/04/10 03:25:06;;;;;;;3.72;1.30;;;;;;;;;;4972723;28;20050;-72
2022/04/10 03:27:32;;;;;;;3.13;1.20;;;;;;;;;;4971429;28;20395;-73
2022/04/10 03:29:59;;;;;;;3.83;1.20;;;;;;;;;;4962005;28;20061;-73
2022/04/10 03:32:25;;;;;;;3.67;1.17;;;;;;;;;;4973474;28;20062;-72
2022/04/10 03:34:51;;;;;;;3.83;1.30;;;;;;;;;;4973219;28;20057;-73
2022/04/10 03:37:18;;;;;;;3.72;1.23;;;;;;;;;;4955614;28;20047;-73
2022/04/10 03:39:44;;;;;;;3.38;1.33;;;;;;;;;;4960652;28;20414;-73
2022/04/10 03:42:12;;;;;;;2.90;1.30;;;;;;;;;;4971726;28;20057;-73
2022/04/10 03:44:38;;;;;;;3.55;1.30;;;;;;;;;;4953150;28;20052;-73
2022/04/10 03:47:05;;;;;;;3.88;1.42;;;;;;;;;;4965952;28;20053;-73
2022/04/10 03:49:31;;;;;;;2.55;1.20;;;;;;;;;;4954754;28;20055;-73
2022/04/10 03:51:57;;;;;;;3.45;1.13;;;;;;;;;;4967103;28;20461;-72
2022/04/10 03:54:24;;;;;;;4.07;1.27;;;;;;;;;;4953341;28;20059;-72
2022/04/10 03:56:50;;;;;;;4.32;1.30;;;;;;;;;;4974809;23;20047;-76
2022/04/10 03:59:18;;;;;;;2.33;1.08;;;;;;;;;;4984754;28;20177;-76
2022/04/10 04:01:44;;;;;;;3.10;1.13;;;;;;;;;;4969287;28;20055;-76
2022/04/10 04:04:10;;;;;;;2.50;1.15;;;;;;;;;;4956056;28;20495;-76
2022/04/10 04:06:37;;;;;;;2.80;1.25;;;;;;;;;;4956759;28;20051;-76
2022/04/10 04:09:03;;;;;;;3.95;1.25;;;;;;;;;;4965038;28;20050;-76
2022/04/10 04:11:29;;;;;;;3.92;1.17;;;;;;;;;;4975187;28;20086;-76
2022/04/10 04:13:56;;;;;;;3.13;1.13;;;;;;;;;;4964499;28;20051;-76
2022/04/10 04:16:24;;;;;;;2.55;1.17;;;;;;;;;;4976486;28;20062;-76
2022/04/10 04:18:51;;;;;;;2.35;1.10;;;;;;;;;;4975765;28;20053;-76
2022/04/10 04:21:17;;;;;;;4.28;1.10;;;;;;;;;;4975919;28;20058;-75
2022/04/10 04:23:43;;;;;;;3.15;1.35;;;;;;;;;;4975380;28;20418;-75
2022/04/10 04:26:10;;;;;;;4.18;1.15;;;;;;;;;;4975877;28;20058;-76
2022/04/10 04:28:36;;;;;;;4.80;1.20;;;;;;;;;;4975461;28;20642;-76
2022/04/10 04:31:03;;;;;;;3.38;1.30;;;;;;;;;;4975080;28;20057;-76
2022/04/10 04:33:30;;;;;;;2.72;1.10;;;;;;;;;;4974318;28;20474;-75
2022/04/10 04:35:57;;;;;;;3.03;1.13;;;;;;;;;;4975661;28;20403;-76
2022/04/10 04:38:23;;;;;;;2.75;1.25;;;;;;;;;;4974946;28;20409;-76
2022/04/10 04:40:49;;;;;;;4.05;1.20;;;;;;;;;;4975350;28;20054;-76
2022/04/10 04:43:16;;;;;;;4.90;1.38;;;;;;;;;;4974459;28;20047;-75
2022/04/10 04:45:42;;;;;;;4.75;1.20;;;;;;;;;;4975357;28;20043;-76
2022/04/10 04:48:08;;;;;;;2.72;1.25;;;;;;;;;;4974747;28;20047;-75
2022/04/10 04:50:36;;;;;;;3.08;1.13;;;;;;;;;;4975311;28;20051;-75
2022/04/10 04:53:02;;;;;;;3.75;1.25;;;;;;;;;;4974910;28;20054;-75
2022/04/10 04:55:29;;;;;;;3.47;1.30;;;;;;;;;;4975050;28;20495;-75
2022/04/10 04:57:56;;;;;;;5.05;1.42;;;;;;;;;;4974782;28;20526;-76
2022/04/10 05:00:22;;;;;;;3.10;1.10;;;;;;;;;;4975221;28;20502;-75
2022/04/10 05:02:48;;;;;;;3.13;1.20;;;;;;;;;;4974715;28;20098;-75
2022/04/10 05:05:15;;;;;;;3.03;1.17;;;;;;;;;;4975257;28;20054;-76
2022/04/10 05:07:42;;;;;;;4.25;1.40;;;;;;;;;;4955325;28;20451;-76
2022/04/10 05:10:09;;;;;;;4.30;1.33;;;;;;;;;;4972879;28;20102;-75
2022/04/10 05:12:35;;;;;;;2.95;1.20;;;;;;;;;;4973903;28;20064;-78
2022/04/10 05:15:04;;;;;;;3.63;1.10;;;;;;;;;;4974846;28;20051;-75
2022/04/10 05:17:30;;;;;;;5.22;1.60;;;;;;;;;;4975025;28;20055;-76
2022/04/10 05:19:57;;;;;;;4.22;1.27;;;;;;;;;;4974487;28;20106;-75
2022/04/10 05:22:23;;;;;;;4.10;1.30;;;;;;;;;;4974442;28;20517;-76
2022/04/10 05:24:51;;;;;;;3.67;1.13;;;;;;;;;;4973928;28;20688;-75
2022/04/10 05:27:18;;;;;;;3.45;1.33;;;;;;;;;;4974556;28;20054;-76
2022/04/10 05:29:44;;;;;;;3.42;1.13;;;;;;;;;;4974095;28;20098;-75
2022/04/10 05:32:11;;;;;;;5.15;1.35;;;;;;;;;;4974417;28;20050;-75
2022/04/10 05:34:37;;;;;;;2.00;1.00;;;;;;;;;;4972829;28;20050;-76
2022/04/10 05:37:04;;;;;;;3.92;1.27;;;;;;;;;;4974380;28;20043;-75
2022/04/10 05:39:30;;;;;;;3.33;1.15;;;;;;;;;;4974318;28;20050;-77
2022/04/10 05:41:58;;;;;;;4.22;1.33;;;;;;;;;;4974111;28;20061;-76
2022/04/10 05:44:24;;;;;;;3.63;1.30;;;;;;;;;;4973759;28;20057;-75
2022/04/10 05:46:50;;;;;;;2.58;1.10;;;;;;;;;;4973864;28;20402;-76
2022/04/10 05:49:17;;;;;;;4.00;1.30;;;;;;;;;;4973700;28;20042;-76
2022/04/10 05:51:43;;;;;;;3.40;1.10;;;;;;;;;;4973607;28;20054;-76
2022/04/10 05:54:09;;;;;;;3.80;1.17;;;;;;;;;;4973086;28;20522;-76
2022/04/10 05:56:36;;;;;;;3.22;1.27;;;;;;;;;;4974030;28;20399;-77
2022/04/10 05:59:03;;;;;;;2.78;1.08;;;;;;;;;;4974251;28;20058;-75
2022/04/10 06:01:30;;;;;;;4.13;1.30;;;;;;;;;;4973519;28;20060;-76
2022/04/10 06:03:56;;;;;;;3.05;1.10;;;;;;;;;;4972672;28;20046;-75
2022/04/10 06:06:23;;;;;;;2.67;1.23;;;;;;;;;;4975810;28;20051;-78
2022/04/10 06:08:49;;;;;;;2.75;1.33;;;;;;;;;;4976224;28;20050;-77
2022/04/10 06:11:15;;;;;;;4.85;1.38;;;;;;;;;;4976624;28;20145;-77
2022/04/10 06:13:42;;;;;;;3.85;1.20;;;;;;;;;;4976291;28;20057;-77
2022/04/10 06:16:09;;;;;;;4.95;1.52;;;;;;;;;;4976405;28;20050;-77
2022/04/10 06:18:36;;;;;;;6.50;1.52;;;;;;;;;;4975167;28;20046;-79
2022/04/10 06:21:02;;;;;;;3.38;1.13;;;;;;;;;;4971216;28;20050;-77
2022/04/10 06:23:28;;;;;;;5.57;1.40;;;;;;;;;;4972075;28;20051;-77
2022/04/10 06:25:55;;;;;;;3.90;1.40;;;;;;;;;;4971048;28;20049;-77
2022/04/10 06:28:21;;;;;;;8.43;1.60;;;;;;;;;;4973800;28;20060;-77
2022/04/10 06:30:47;;;;;;;3.85;1.45;;;;;;;;;;4973661;28;20061;-77
2022/04/10 06:33:15;;;;;;;6.70;1.60;;;;;;;;;;4974147;28;20047;-77
2022/04/10 06:35:41;;;;;;;8.90;1.70;;;;;;;;;;4961441;28;20066;-77
2022/04/10 06:38:08;;;;;;;6.68;1.40;;;;;;;;;;4957059;28;20058;-77
2022/04/10 06:40:34;;;;;;;4.65;1.52;;;;;;;;;;4972826;28;20073;-77
2022/04/10 06:43:00;;;;;;;6.40;1.52;;;;;;;;;;4962868;28;20075;-77
2022/04/10 06:45:27;;;;;;;7.72;1.83;;;;;;;;;;4974141;28;20074;-77
2022/04/10 06:47:53;;;;;;;6.60;1.80;;;;;;;;;;4974253;28;20050;-77
2022/04/10 06:50:21;;;;;;;4.85;1.70;;;;;;;;;;4973352;28;20169;-77
2022/04/10 06:52:47;;;;;;;4.72;1.77;;;;;;;;;;4970038;28;20082;-77
2022/04/10 06:55:14;;;;;;;5.38;1.90;;;;;;;;;;4973134;28;20062;-77
2022/04/10 06:57:40;;;;;;;6.70;1.80;;;;;;;;;;4973361;28;20478;-77
2022/04/10 07:00:07;;;;;;;4.82;1.60;;;;;;;;;;4973051;28;20078;-77
2022/04/10 07:02:34;;;;;;;5.70;1.63;;;;;;;;;;4972185;28;20048;-77
2022/04/10 07:05:00;;;;;;;6.45;2.00;;;;;;;;;;4972999;28;20416;-77
2022/04/10 07:07:28;;;;;;;4.75;1.77;;;;;;;;;;4959885;28;20051;-77
2022/04/10 07:09:54;;;;;;;6.85;1.73;;;;;;;;;;4965204;28;20088;-77
2022/04/10 07:12:20;;;;;;;4.80;1.73;;;;;;;;;;4973845;28;20059;-77
2022/04/10 07:14:47;;;;;;;5.05;1.83;;;;;;;;;;4973041;28;20418;-77
2022/04/10 07:17:13;;;;;;;7.50;1.90;;;;;;;;;;4969822;28;20055;-78
2022/04/10 07:19:40;;;;;;;5.50;1.80;;;;;;;;;;4968617;28;20065;-75
2022/04/10 07:24:51;;;;;;;4.57;1.60;;;;;;;;;;4972016;28;20533;-75
2022/04/10 07:27:18;;;;;;;5.60;1.60;;;;;;;;;;4972336;28;20105;-75
2022/04/10 07:29:44;;;;;;;5.07;1.67;;;;;;;;;;4972882;28;20043;-75
2022/04/10 07:32:11;;;;;;;4.82;1.42;;;;;;;;;;4977568;28;20051;-75
2022/04/10 07:34:37;;;;;;;5.30;1.60;;;;;;;;;;4975023;28;20137;-75
2022/04/10 07:37:03;;;;;;;8.25;1.85;;;;;;;;;;4975135;28;20051;-75
2022/04/10 07:39:30;;;;;;;6.90;1.60;;;;;;;;;;4975885;28;20046;-75
2022/04/10 07:41:58;;;;;;;4.95;1.70;;;;;;;;;;4976454;28;20050;-75
2022/04/10 07:44:24;;;;;;;3.88;1.45;;;;;;;;;;4975205;28;20047;-76
2022/04/10 07:49:34;;;;;;;5.15;1.60;;;;;;;;;;4975100;28;20061;-75
2022/04/10 07:52:01;;;;;;;6.45;1.60;;;;;;;;;;4963694;28;20055;-75
2022/04/10 07:54:27;;;;;;;10.52;1.60;;;;;;;;;;4975358;28;20526;-75
2022/04/10 07:56:54;;;;;;;5.57;1.73;;;;;;;;;;4977129;28;20054;-75
2022/04/10 07:59:23;;;;;;;5.00;1.50;;;;;;;;;;4972703;28;20047;-75
2022/04/10 08:01:49;;;;;;;8.13;1.60;;;;;;;;;;4969733;28;20061;-74
2022/04/10 08:04:16;;;;;;;4.60;1.38;;;;;;;;;;4974683;28;20055;-75
2022/04/10 08:06:42;;;;;;;6.65;1.50;;;;;;;;;;4975245;28;20057;-75
2022/04/10 08:09:09;;;;;;;4.43;1.48;;;;;;;;;;4975510;28;20109;-75
2022/04/10 08:11:36;;;;;;;5.53;1.60;;;;;;;;;;4975911;28;20086;-75
2022/04/10 08:14:02;;;;;;;6.68;1.70;;;;;;;;;;4974727;28;20093;-75
2022/04/10 08:16:30;;;;;;;5.50;1.45;;;;;;;;;;4975041;28;20051;-75
2022/04/10 08:18:56;;;;;;;4.68;1.60;;;;;;;;;;4975634;28;20050;-75
2022/04/10 08:21:23;;;;;;;4.78;1.40;;;;;;;;;;4975429;28;20050;-75
2022/04/10 08:23:49;;;;;;;7.03;1.75;;;;;;;;;;4974968;28;20051;-75
2022/04/10 08:26:15;;;;;;;5.78;1.45;;;;;;;;;;4974888;28;20158;-75
2022/04/10 08:28:42;;;;;;;5.88;1.52;;;;;;;;;;4974901;28;20059;-75
2022/04/10 08:31:08;;;;;;;4.93;1.58;;;;;;;;;;4975486;28;20069;-75
2022/04/10 08:33:36;;;;;;;7.03;1.60;;;;;;;;;;4974699;28;20050;-75
2022/04/10 08:36:02;;;;;;;4.90;1.60;;;;;;;;;;4974645;28;20058;-75
2022/04/10 08:38:29;;;;;;;4.15;1.45;;;;;;;;;;4973288;28;20074;-75
2022/04/10 08:40:57;;;;;;;7.47;1.70;;;;;;;;;;4975310;28;20047;-75
2022/04/10 08:43:23;;;;;;;4.43;1.20;;;;;;;;;;4973426;28;20057;-75
2022/04/10 08:45:50;;;;;;;4.40;1.50;;;;;;;;;;4974986;28;20050;-75
2022/04/10 08:48:17;;;;;;;3.55;1.42;;;;;;;;;;4972484;28;20554;-75
2022/04/10 08:50:45;;;;;;;5.20;1.60;;;;;;;;;;4966094;28;20053;-75
2022/04/10 08:53:12;;;;;;;4.88;1.40;;;;;;;;;;4974148;28;20051;-75
2022/04/10 08:55:38;;;;;;;5.63;1.40;;;;;;;;;;4974807;28;20050;-75
2022/04/10 08:58:05;;;;;;;6.50;1.50;;;;;;;;;;4973286;28;20492;-75
2022/04/10 09:00:31;;;;;;;6.00;1.80;;;;;;;;;;4974601;28;20053;-75
2022/04/10 09:02:58;;;;;;;3.75;1.20;;;;;;;;;;4974624;28;20051;-75
2022/04/10 09:05:25;;;;;;;4.75;1.38;;;;;;;;;;4974527;28;20413;-75
2022/04/10 09:08:09;;;;;;;4.20;1.40;;;;;;;;;;4975257;28;20056;-75
2022/04/10 09:10:57;;;;;;;3.88;1.30;;;;;;;;;;4973776;28;20053;-75
2022/04/10 09:13:33;;;;;;;5.57;1.40;;;;;;;;;;4973939;28;20057;-76
2022/04/10 09:16:01;;;;;;;5.22;1.42;;;;;;;;;;4968289;28;20046;-75
2022/04/10 09:18:27;;;;;;;6.53;1.35;;;;;;;;;;4976470;28;20046;-75
2022/04/10 09:21:05;;;;;;;5.43;1.45;;;;;;;;;;4974260;28;20520;-75
2022/04/10 09:23:33;;;;;;;3.95;1.23;;;;;;;;;;4974349;28;20057;-75
2022/04/10 09:25:59;;;;;;;5.72;1.60;;;;;;;;;;4979846;28;20043;-75
2022/04/10 09:28:40;;;;;;;3.92;1.42;;;;;;;;;;4974486;28;20470;-75
2022/04/10 09:31:06;;;;;;;;;;;;;;;;;;4975139;28;20043;-75
2022/04/10 09:33:48;;;;;;;5.30;1.30;;;;;;;;;;4973755;28;19925;-75
2022/04/10 09:36:14;;;;;;;4.32;1.30;;;;;;;;;;4973608;28;20054;-75
2022/04/10 09:38:45;;;;;;;4.20;1.40;;;;;;;;;;4974471;28;20052;-75
2022/04/10 09:41:12;;;;;;;3.92;1.30;;;;;;;;;;4968505;28;20051;-75
2022/04/10 09:43:39;;;;;;;6.20;1.50;;;;;;;;;;4969568;28;20047;-76
2022/04/10 09:46:11;;;;;;;5.47;1.60;;;;;;;;;;4974490;28;20054;-75
2022/04/10 09:48:38;;;;;;;6.68;1.30;;;;;;;;;;4974021;28;20051;-75
2022/04/10 09:51:05;;;;;;;3.42;1.25;;;;;;;;;;4974378;28;20061;-74
2022/04/10 09:53:32;;;;;;;6.10;1.42;;;;;;;;;;4970750;28;20070;-75
2022/04/10 09:56:02;;;;;;;4.13;1.40;;;;;;;;;;4955242;29;20057;-76
2022/04/10 09:58:29;;;;;;;5.53;1.30;;;;;;;;;;4992691;23;20046;-75
2022/04/10 10:00:56;;;;;;;4.43;1.40;;;;;;;;;;4989480;28;20145;-75
2022/04/10 10:03:23;;;;;;;7.15;1.50;;;;;;;;;;4995133;28;20050;-75
2022/04/10 10:05:49;;;;;;;4.97;1.30;;;;;;;;;;5000892;28;20072;-77
2022/04/10 10:08:18;;;;;;;6.82;1.50;;;;;;;;;;4997722;28;20108;-77
2022/04/10 10:10:45;;;;;;;8.07;1.60;;;;;;;;;;4983671;28;20050;-77
2022/04/10 10:13:13;;;;;;;7.40;1.52;;;;;;;;;;4994130;28;20086;-77
2022/04/10 10:15:40;;;;;;;6.57;1.48;;;;;;;;;;4994059;28;20072;-77
2022/04/10 10:18:07;;;;;;;5.55;1.35;;;;;;;;;;4993417;28;20528;-77
2022/04/10 10:20:34;;;;;;;5.53;1.40;;;;;;;;;;4999783;28;20046;-77
2022/04/10 10:23:01;;;;;;;6.25;1.40;;;;;;;;;;4992080;28;20412;-77
2022/04/10 10:25:30;;;;;;;6.85;1.70;;;;;;;;;;4992276;28;20508;-77
2022/04/10 10:28:16;;;;;;;5.65;1.30;;;;;;;;;;4989411;28;20082;-77
2022/04/10 10:38:30;;;;;;;6.70;1.52;;;;;;;;;;5238345;23;20054;-75
2022/04/10 10:41:09;;;;;;;7.35;1.60;;;;;;;;;;4978929;28;20475;-75
2022/04/10 10:43:35;;;;;;;7.78;1.67;;;;;;;;;;5020096;28;20033;-77
2022/04/10 10:46:26;;;;;;;5.38;1.50;;;;;;;;;;5018066;28;20050;-77
2022/04/10 10:52:09;;;;;;;7.95;1.52;;;;;;;;;;5012927;28;20109;-78
2022/04/10 10:54:42;;;;;;;7.75;1.48;;;;;;;;;;5013115;28;20092;-77
2022/04/10 10:57:25;;;;;;;6.05;1.50;;;;;;;;;;4993031;28;20050;-76
2022/04/10 10:59:52;;;;;;;6.03;1.45;;;;;;;;;;4993569;28;20056;-77
2022/04/10 11:02:19;;;;;;;6.85;1.60;;;;;;;;;;4977557;28;20047;-76
2022/04/10 11:04:47;;;;;;;4.60;1.30;;;;;;;;;;4972735;28;20051;-76
2022/04/10 11:07:14;;;;;;;5.28;1.45;;;;;;;;;;4992401;28;20054;-76
2022/04/10 11:09:55;;;;;;;9.35;1.50;;;;;;;;;;4992991;28;20061;-76
2022/04/10 11:12:22;;;;;;;4.85;1.30;;;;;;;;;;4993071;28;20053;-76
2022/04/10 11:14:50;;;;;;;6.28;1.30;;;;;;;;;;4983382;28;20051;-77
2022/04/10 11:17:18;;;;;;;7.55;1.48;;;;;;;;;;4973381;28;20142;-77
2022/04/10 11:19:46;;;;;;;6.50;1.52;;;;;;;;;;4973670;28;20670;-77
2022/04/10 11:22:19;;;;;;;5.88;1.50;;;;;;;;;;4990710;28;20501;-76
2022/04/10 11:24:45;;;;;;;4.43;1.40;;;;;;;;;;4992860;28;20476;-77
2022/04/10 11:27:19;;;;;;;6.50;1.52;;;;;;;;;;5000869;28;20055;-79
2022/04/10 11:29:50;;;;;;;8.63;1.40;;;;;;;;;;4999386;28;20061;-77
2022/04/10 11:32:18;;;;;;;6.53;1.50;;;;;;;;;;4994655;28;20501;-76
2022/04/10 11:34:44;;;;;;;7.22;1.50;;;;;;;;;;4996444;28;20058;-77
2022/04/10 11:37:16;;;;;;;6.65;1.50;;;;;;;;;;4995705;28;20140;-77
2022/04/10 11:39:43;;;;;;;12.35;1.60;;;;;;;;;;5001795;28;20564;-77
2022/04/10 11:42:11;;;;;;;5.57;1.30;;;;;;;;;;5015408;28;20424;-77
2022/04/10 11:44:39;;;;;;;5.32;1.40;;;;;;;;;;5006971;28;20085;-77
2022/04/10 11:47:08;;;;;;;5.70;1.50;;;;;;;;;;4994293;28;20405;-77
2022/04/10 11:49:36;;;;;;;6.45;1.27;;;;;;;;;;4994649;28;20050;-77
2022/04/10 11:52:03;;;;;;;7.00;1.50;;;;;;;;;;4994944;28;20076;-77
2022/04/10 11:54:31;;;;;;;7.03;1.38;;;;;;;;;;4994028;28;20050;-77
2022/04/10 11:56:58;;;;;;;4.75;1.40;;;;;;;;;;4995389;28;20050;-77
2022/04/10 11:59:25;;;;;;;6.97;1.40;;;;;;;;;;4994718;28;20516;-77
2022/04/10 12:01:54;;;;;;;3.78;1.27;;;;;;;;;;4990288;28;20097;-77
2022/04/10 12:04:21;;;;;;;4.00;1.27;;;;;;;;;;4976599;28;20066;-77
2022/04/10 12:06:47;;;;;;;7.55;1.45;;;;;;;;;;4995222;28;20057;-77
2022/04/10 12:09:15;;;;;;;3.20;1.20;;;;;;;;;;4993836;28;20058;-77
2022/04/10 12:11:41;;;;;;;6.82;1.50;;;;;;;;;;4977157;28;20047;-77
2022/04/10 12:14:17;;;;;;;4.13;1.17;;;;;;;;;;4988410;28;20597;-77
2022/04/10 12:16:44;;;;;;;6.03;1.38;;;;;;;;;;4996221;28;20074;-77
2022/04/10 12:19:11;;;;;;;4.97;1.30;;;;;;;;;;5009378;28;20061;-76
2022/04/10 12:21:38;;;;;;;4.35;1.35;;;;;;;;;;5016416;28;20094;-76
2022/04/10 12:24:05;;;;;;;5.07;1.27;;;;;;;;;;5002380;28;20065;-76
2022/04/10 12:26:33;;;;;;;6.03;1.30;;;;;;;;;;5011518;28;20138;-77
2022/04/10 12:28:59;;;;;;;5.43;1.20;;;;;;;;;;4997201;28;20073;-77
2022/04/10 12:31:26;;;;;;;3.58;1.25;;;;;;;;;;4999488;28;20054;-77
2022/04/10 12:33:52;;;;;;;4.75;1.30;;;;;;;;;;4998589;28;20046;-77
2022/04/10 12:36:21;;;;;;;5.70;1.20;;;;;;;;;;5000031;28;20433;-77
2022/04/10 12:38:50;;;;;;;5.78;1.33;;;;;;;;;;4998787;28;20042;-77
2022/04/10 12:41:25;;;;;;;4.75;1.20;;;;;;;;;;4998777;28;20399;-77
2022/04/10 12:43:58;;;;;;;5.35;1.30;;;;;;;;;;4998985;28;20072;-77
2022/04/10 12:46:32;;;;;;;4.60;1.33;;;;;;;;;;5000337;28;20054;-77
2022/04/10 12:49:09;;;;;;;5.95;1.30;;;;;;;;;;4998973;28;20046;-77
2022/04/10 12:51:46;;;;;;;4.20;1.30;;;;;;;;;;4999674;28;20050;-77
2022/04/10 12:54:12;;;;;;;4.32;1.30;;;;;;;;;;4997596;28;20391;-77
2022/04/10 12:56:39;;;;;;;5.05;1.30;;;;;;;;;;4999102;28;20050;-77
2022/04/10 12:59:05;;;;;;;5.63;1.25;;;;;;;;;;4998691;28;20042;-77
2022/04/10 13:01:32;;;;;;;5.35;1.30;;;;;;;;;;4999597;28;20042;-77
2022/04/10 13:03:59;;;;;;;6.38;1.30;;;;;;;;;;4999024;28;20145;-77
2022/04/10 13:06:45;;;;;;;5.07;1.23;;;;;;;;;;4999725;28;20105;-77
2022/04/10 13:09:13;;;;;;;5.00;1.30;;;;;;;;;;5000000;28;20101;-77
2022/04/10 13:11:40;;;;;;;4.90;1.20;;;;;;;;;;4980565;28;20043;-77
2022/04/10 13:14:08;;;;;;;3.72;1.20;;;;;;;;;;4981585;28;20051;-77
2022/04/10 13:16:35;;;;;;;3.83;1.17;;;;;;;;;;5000194;28;20089;-77
2022/04/10 13:19:02;;;;;;;4.35;1.30;;;;;;;;;;4999220;28;20077;-77
2022/04/10 13:21:28;;;;;;;4.13;1.13;;;;;;;;;;5000235;28;20050;-77
2022/04/10 13:23:55;;;;;;;4.57;1.30;;;;;;;;;;5000743;28;20403;-77
2022/04/10 13:26:26;;;;;;;3.70;1.25;;;;;;;;;;4998952;28;20070;-77
2022/04/10 13:28:52;;;;;;;4.50;1.08;;;;;;;;;;4997555;28;20062;-77
2022/04/10 13:31:18;;;;;;;4.95;1.20;;;;;;;;;;5000205;28;20387;-77
2022/04/10 13:33:45;;;;;;;3.90;1.13;;;;;;;;;;5000319;28;20090;-77
2022/04/10 13:36:11;;;;;;;3.97;1.30;;;;;;;;;;5000346;28;20046;-77
2022/04/10 13:38:38;;;;;;;4.18;1.30;;;;;;;;;;4999874;28;20140;-77
2022/04/10 13:41:04;;;;;;;4.05;1.20;;;;;;;;;;4999420;28;20506;-77
2022/04/10 13:43:32;;;;;;;5.05;1.30;;;;;;;;;;4999438;28;20056;-77
2022/04/10 13:45:58;;;;;;;6.07;1.10;;;;;;;;;;4998896;28;20057;-77
2022/04/10 13:48:25;;;;;;;2.38;1.00;;;;;;;;;;4998906;28;20074;-77
2022/04/10 13:50:51;;;;;;;4.65;1.25;;;;;;;;;;5000728;28;20085;-77
2022/04/10 13:53:18;;;;;;;5.93;1.30;;;;;;;;;;4998907;28;20069;-76
2022/04/10 13:55:44;;;;;;;4.30;1.00;;;;;;;;;;4999801;28;20050;-77
2022/04/10 13:58:10;;;;;;;4.65;1.20;;;;;;;;;;5005049;28;20054;-76
2022/04/10 14:00:39;;;;;;;3.53;1.20;;;;;;;;;;5016410;28;20054;-77
2022/04/10 14:03:06;;;;;;;4.85;1.33;;;;;;;;;;4999731;28;20047;-77
2022/04/10 14:05:32;;;;;;;4.20;1.20;;;;;;;;;;5000137;28;20061;-77
2022/04/10 14:07:59;;;;;;;4.28;1.20;;;;;;;;;;5000237;28;20050;-77
2022/04/10 14:10:25;;;;;;;3.67;1.10;;;;;;;;;;4999218;28;20061;-77
2022/04/10 14:12:51;;;;;;;5.40;1.10;;;;;;;;;;4998962;28;20050;-77
2022/04/10 14:15:18;;;;;;;4.13;1.17;;;;;;;;;;5000412;28;20057;-77
2022/04/10 14:17:45;;;;;;;3.97;1.27;;;;;;;;;;5002135;28;20129;-77
2022/04/10 14:20:12;;;;;;;5.35;1.30;;;;;;;;;;5002308;28;20050;-77
2022/04/10 14:22:38;;;;;;;3.67;1.00;;;;;;;;;;5014539;28;20073;-76
2022/04/10 14:25:05;;;;;;;3.83;1.30;;;;;;;;;;5005472;28;20454;-77
2022/04/10 14:27:32;;;;;;;4.85;1.15;;;;;;;;;;4999450;28;20406;-77
2022/04/10 14:29:58;;;;;;;3.88;1.20;;;;;;;;;;4998605;28;20050;-77
2022/04/10 14:32:25;;;;;;;4.05;1.13;;;;;;;;;;4998735;28;20050;-77
2022/04/10 14:34:52;;;;;;;2.97;1.10;;;;;;;;;;4997429;28;20050;-77
2022/04/10 14:37:19;;;;;;;4.63;1.33;;;;;;;;;;4997840;28;20054;-77
2022/04/10 14:39:45;;;;;;;4.60;1.33;;;;;;;;;;4996328;28;20057;-77
2022/04/10 14:42:11;;;;;;;2.63;1.00;;;;;;;;;;4998139;28;20047;-77
2022/04/10 14:44:39;;;;;;;4.07;1.30;;;;;;;;;;4996404;28;20153;-77
2022/04/10 14:47:06;;;;;;;;;;;;;;;;;;4998196;28;20108;-77
2022/04/10 14:49:32;;;;;;;3.70;0.98;;;;;;;;;;4998413;28;20623;-77
2022/04/10 14:52:00;;;;;;;4.55;1.23;;;;;;;;;;4997397;28;20410;-77
2022/04/10 14:54:26;;;;;;;4.88;1.30;;;;;;;;;;4998028;28;20054;-77
2022/04/10 14:56:53;;;;;;;4.30;1.10;;;;;;;;;;4998733;28;20050;-77
2022/04/10 14:59:19;;;;;;;5.82;1.50;;;;;;;;;;4998380;28;20129;-77
2022/04/10 15:01:46;;;;;;;4.28;1.40;;;;;;;;;;4997612;28;20465;-77